Time;durP1;ratioP1;P1;durP2;ratioP2;P2;SDS_P1;SDS_P2;PMS_P1;PMS_P2;Temp;Humidity;BMP_temperature;BMP_pressure;BME280_temperature;BME280_humidity;BME280_pressure;Samples;Min_cycle;Max_cycle;Signal;HPM_P1;HPM_P2
2021/12/22 00:01:23;;;;;;;32.88;11.32;;;;;;;-0.45;59.83;100924.87;4333730;33;33873;-94
2021/12/22 00:04:16;;;;;;;26.00;10.25;;;;;;;-0.13;58.84;100922.88;4319345;33;32571;-94
2021/12/22 00:06:58;;;;;;;35.47;12.20;;;;;;;-0.23;58.99;100926.16;4331111;33;32739;-93
2021/12/22 00:09:49;;;;;;;30.67;11.05;;;;;;;-0.42;59.59;100926.69;4345967;33;32403;-94
2021/12/22 00:12:31;;;;;;;29.02;11.73;;;;;;;-0.03;58.45;100926.50;4322030;33;32886;-93
2021/12/22 00:15:22;;;;;;;22.02;11.05;;;;;;;-0.30;58.89;100927.75;4315945;33;32812;-90
2021/12/22 00:18:05;;;;;;;28.15;9.75;;;;;;;-0.14;58.37;100930.62;4340879;33;32852;-90
2021/12/22 00:20:34;;;;;;;27.13;9.80;;;;;;;-0.17;58.06;100930.59;4320891;33;34176;-96
2021/12/22 00:23:16;;;;;;;26.62;10.10;;;;;;;-0.20;58.06;100933.13;4338727;33;32354;-96
2021/12/22 00:26:07;;;;;;;36.10;11.38;;;;;;;-0.30;58.05;100935.53;4320626;33;31551;-96
2021/12/22 00:28:47;;;;;;;30.88;11.12;;;;;;;-0.29;58.65;100947.66;4307676;33;32206;-94
2021/12/22 00:31:29;;;;;;;27.25;8.90;;;;;;;-0.28;58.33;100954.63;4323345;33;33911;-94
2021/12/22 00:34:16;;;;;;;20.92;8.15;;;;;;;-0.42;58.33;100960.41;4316162;33;32329;-95
2021/12/22 00:36:59;;;;;;;14.82;6.68;;;;;;;-0.41;58.79;100972.53;4333727;33;32702;-95
2021/12/22 00:39:52;;;;;;;14.10;6.35;;;;;;;-0.56;59.52;100980.88;4318914;33;32714;-93
2021/12/22 00:42:32;;;;;;;13.25;5.90;;;;;;;-0.48;59.49;100976.72;4318119;33;34092;-95
2021/12/22 00:45:27;;;;;;;13.05;6.25;;;;;;;-0.24;59.00;100978.03;4323993;33;32957;-93
2021/12/22 00:48:09;;;;;;;12.52;5.78;;;;;;;-0.24;58.48;100981.50;4323310;33;33293;-95
2021/12/22 00:51:01;;;;;;;18.20;6.40;;;;;;;-0.25;59.31;100984.94;4332773;33;33000;-95
2021/12/22 00:53:41;;;;;;;13.73;6.10;;;;;;;-0.22;59.92;100978.94;4310760;33;33611;-95
2021/12/22 00:56:24;;;;;;;12.95;6.07;;;;;;;-0.12;59.77;100971.34;4337679;33;33981;-95
2021/12/22 00:59:06;;;;;;;13.93;6.32;;;;;;;-0.49;60.14;100974.97;4335123;33;32187;-95
2021/12/22 01:02:01;;;;;;;17.40;6.68;;;;;;;-0.31;59.94;100985.72;4324300;33;34504;-95
2021/12/22 01:09:04;;;;;;;12.90;6.05;;;;;;;-0.05;58.78;100990.50;4336400;33;34795;-95
2021/12/22 01:11:55;;;;;;;17.37;6.30;;;;;;;-0.09;58.92;101001.72;4350521;32;32124;-94
2021/12/22 01:14:37;;;;;;;16.55;6.32;;;;;;;-0.01;58.69;101000.97;4336116;33;33041;-94
2021/12/22 01:21:59;;;;;;;12.37;6.40;;;;;;;0.28;58.13;100994.56;4336358;33;35086;-94
2021/12/22 01:24:47;;;;;;;20.35;7.03;;;;;;;0.08;58.79;100995.06;4328151;33;33371;-94
2021/12/22 01:27:41;;;;;;;14.73;6.10;;;;;;;0.10;59.03;101002.91;4329031;33;32829;-93
2021/12/22 01:30:24;;;;;;;10.18;5.35;;;;;;;0.03;59.01;100993.25;4347775;33;33411;-91
2021/12/22 01:33:16;;;;;;;15.30;6.72;;;;;;;-0.05;59.01;100999.19;4341945;33;32366;-92
2021/12/22 01:35:59;;;;;;;18.85;7.28;;;;;;;0.27;58.52;100995.41;4325595;33;32248;-92
2021/12/22 01:38:53;;;;;;;19.70;7.47;;;;;;;0.08;59.36;100992.47;4323642;33;34473;-90
2021/12/22 01:41:32;;;;;;;14.60;7.22;;;;;;;0.10;59.66;100993.41;4309588;33;33068;-91
2021/12/22 01:44:28;;;;;;;13.68;6.85;;;;;;;0.35;59.22;100991.22;4305293;33;32650;-95
2021/12/22 01:50:38;;;;;;;19.52;7.90;;;;;;;0.45;58.95;101003.50;4326043;33;34292;-94
2021/12/22 01:53:21;;;;;;;15.32;6.40;;;;;;;0.49;58.09;101002.72;4311507;33;32619;-92
2021/12/22 01:56:21;;;;;;;11.40;6.32;;;;;;;0.84;56.98;100992.00;4334557;33;32048;-92
2021/12/22 01:59:02;;;;;;;16.23;5.85;;;;;;;0.79;56.92;100989.31;4345945;33;33410;-91
2021/12/22 02:01:54;;;;;;;10.35;4.85;;;;;;;0.17;58.32;100997.84;4297168;33;32860;-95
2021/12/22 02:04:49;;;;;;;14.63;6.82;;;;;;;0.15;58.52;101004.75;4362511;32;35420;-94
2021/12/22 02:07:29;;;;;;;10.50;5.00;;;;;;;0.20;58.74;101004.81;4340294;32;32913;-94
2021/12/22 02:13:02;;;;;;;12.88;5.55;;;;;;;0.43;58.06;101007.81;4347548;33;33244;-95
2021/12/22 02:15:54;;;;;;;9.10;4.82;;;;;;;0.32;58.36;101005.03;4320439;33;32507;-96
2021/12/22 02:22:57;;;;;;;9.90;5.28;;;;;;;0.54;57.46;101006.25;4335645;33;35002;-92
2021/12/22 02:25:58;;;;;;;9.35;5.45;;;;;;;0.46;57.89;101007.84;4323198;33;33814;-92
2021/12/22 02:28:44;;;;;;;10.63;4.70;;;;;;;0.48;57.77;101000.97;4349604;32;32788;-92
2021/12/22 02:31:44;;;;;;;9.98;4.53;;;;;;;0.72;57.09;100993.56;4334953;33;32631;-92
2021/12/22 02:34:23;;;;;;;9.13;5.10;;;;;;;0.45;57.40;101000.91;4333077;33;32579;-91
2021/12/22 02:37:18;;;;;;;12.02;5.12;;;;;;;0.46;57.20;100997.47;4322070;33;32264;-92
2021/12/22 02:40:08;;;;;;;10.95;5.35;;;;;;;0.80;56.45;100993.66;4311313;33;32474;-95
2021/12/22 02:43:05;;;;;;;11.68;5.87;;;;;;;0.89;56.13;100992.94;4326596;33;32861;-94
2021/12/22 02:45:45;;;;;;;11.10;5.53;;;;;;;0.80;56.36;101004.06;4310821;33;32582;-91
2021/12/22 02:48:37;;;;;;;7.75;4.78;;;;;;;0.93;56.09;100998.19;4348786;32;32764;-92
2021/12/22 02:51:16;;;;;;;6.87;4.57;;;;;;;1.00;55.85;100997.44;4332514;33;33280;-92
2021/12/22 02:54:15;;;;;;;9.30;4.30;;;;;;;1.05;55.83;101000.13;4356562;32;34544;-93
2021/12/22 02:57:07;;;;;;;8.00;4.25;;;;;;;1.05;55.92;100989.72;4336618;33;32509;-94
2021/12/22 03:05:48;;;;;;;7.35;4.50;;;;;;;0.94;56.63;100999.94;4337613;33;32405;-94
2021/12/22 03:08:27;;;;;;;10.15;6.15;;;;;;;1.00;56.58;101004.38;4331747;33;32568;-94
2021/12/22 03:11:19;;;;;;;11.75;5.37;;;;;;;1.06;56.53;101011.38;4371013;27;32843;-95
2021/12/22 03:14:39;;;;;;;8.52;5.07;;;;;;;1.20;55.71;101010.72;4321743;33;34961;-93
2021/12/22 03:17:24;;;;;;;10.18;4.47;;;;;;;1.21;55.69;101016.81;4277383;33;32952;-91
2021/12/22 03:20:16;;;;;;;7.00;3.97;;;;;;;1.40;55.18;101017.94;4298681;33;32161;-94
2021/12/22 03:22:55;;;;;;;8.02;4.55;;;;;;;1.39;54.75;101010.97;4299325;33;32682;-93
2021/12/22 03:25:47;;;;;;;10.70;4.93;;;;;;;1.40;54.86;101015.31;4275569;33;33104;-95
2021/12/22 03:28:26;;;;;;;7.75;3.78;;;;;;;1.32;55.66;101010.00;4289982;33;32518;-95
2021/12/22 03:31:27;;;;;;;8.88;4.57;;;;;;;1.07;56.39;101013.13;4280587;33;34736;-94
2021/12/22 03:34:12;;;;;;;12.10;4.30;;;;;;;1.30;55.76;101018.66;4298560;33;34128;-95
2021/12/22 03:37:06;;;;;;;6.97;4.40;;;;;;;1.49;55.10;101023.25;4302996;33;32863;-93
2021/12/22 03:39:49;;;;;;;11.32;5.37;;;;;;;1.59;54.64;101027.72;4297238;33;33361;-95
2021/12/22 03:42:41;;;;;;;12.00;5.18;;;;;;;1.53;54.96;101027.66;4304775;33;31850;-94
2021/12/22 03:53:32;;;;;;;8.32;4.10;;;;;;;1.08;56.86;101031.34;4319702;33;33462;-96
2021/12/22 03:56:24;;;;;;;9.65;4.85;;;;;;;1.24;56.55;101033.34;4311666;33;32967;-94
2021/12/22 03:59:04;;;;;;;9.75;4.80;;;;;;;1.33;56.11;101030.00;4333062;33;33217;-95
2021/12/22 04:01:56;;;;;;;11.30;5.80;;;;;;;1.15;56.53;101028.00;4339365;33;33853;-95
2021/12/22 04:04:49;;;;;;;11.57;5.57;;;;;;;1.32;56.23;101030.81;4323785;33;32471;-95
2021/12/22 04:07:28;;;;;;;10.98;6.03;;;;;;;1.19;56.75;101027.19;4352424;32;32498;-95
2021/12/22 04:10:22;;;;;;;9.60;5.32;;;;;;;0.92;57.56;101026.78;4308779;33;33229;-96
2021/12/22 04:13:17;;;;;;;11.32;5.78;;;;;;;1.30;56.44;101031.66;4334834;33;34565;-96
2021/12/22 04:15:57;;;;;;;9.32;5.12;;;;;;;1.44;55.58;101037.94;4368005;32;32568;-96
2021/12/22 04:23:12;;;;;;;12.07;5.50;;;;;;;1.42;56.32;101037.91;4338465;33;35352;-93
2021/12/22 04:26:12;;;;;;;9.90;4.20;;;;;;;1.49;56.10;101054.47;4335228;33;34749;-96
2021/12/22 04:28:53;;;;;;;8.68;4.93;;;;;;;1.42;55.97;101052.62;4370727;32;32179;-96
2021/12/22 04:31:45;;;;;;;10.20;4.78;;;;;;;1.37;56.43;101054.31;4325562;33;32888;-96
2021/12/22 04:34:25;;;;;;;10.93;5.30;;;;;;;1.34;56.64;101046.47;4302451;33;31928;-96
2021/12/22 04:37:20;;;;;;;8.85;5.40;;;;;;;1.44;56.75;101050.94;4340801;33;34708;-96
2021/12/22 04:40:00;;;;;;;9.52;4.80;;;;;;;1.55;55.92;101059.75;4329062;33;32235;-96
2021/12/22 04:42:52;;;;;;;8.65;4.75;;;;;;;1.40;55.97;101059.56;4345496;33;31927;-96
2021/12/22 04:45:34;;;;;;;11.93;5.95;;;;;;;1.30;56.56;101055.09;4327263;33;33652;-96
2021/12/22 04:48:28;;;;;;;20.85;8.55;;;;;;;1.35;56.31;101053.41;4321276;33;34648;-96
2021/12/22 04:51:14;;;;;;;20.95;8.38;;;;;;;1.41;56.29;101056.97;4298171;33;32317;-96
2021/12/22 04:54:20;;;;;;;16.40;8.82;;;;;;;1.47;56.31;101044.06;4350673;33;34898;-96
2021/12/22 04:57:00;;;;;;;10.40;5.00;;;;;;;1.51;55.85;101052.75;4340581;33;32774;-96
2021/12/22 04:59:58;;;;;;;7.03;4.25;;;;;;;1.43;56.61;101047.47;4351433;33;34635;-96
2021/12/22 05:02:41;;;;;;;10.85;4.80;;;;;;;1.29;56.50;101051.63;4333869;33;33100;-94
2021/12/22 05:05:33;;;;;;;9.45;3.90;;;;;;;1.39;55.99;101055.22;4272228;33;32384;-95
2021/12/22 05:08:15;;;;;;;9.50;5.30;;;;;;;1.23;56.51;101052.38;4276475;33;33190;-95
2021/12/22 05:11:07;;;;;;;10.68;5.95;;;;;;;1.36;56.35;101047.34;4278718;33;33186;-95
2021/12/22 05:13:46;;;;;;;10.70;4.80;;;;;;;1.52;55.73;101055.41;4291906;33;32783;-93
2021/12/22 05:16:45;;;;;;;12.63;5.62;;;;;;;1.40;56.46;101054.34;4274482;33;34002;-95
2021/12/22 05:19:28;;;;;;;11.35;5.35;;;;;;;1.48;55.89;101058.81;4315786;33;33414;-95
2021/12/22 05:22:10;;;;;;;10.68;5.50;;;;;;;1.56;55.67;101060.63;4291709;33;33152;-96
2021/12/22 05:25:03;;;;;;;12.88;6.40;;;;;;;1.57;55.71;101058.06;4295747;33;32759;-96
2021/12/22 05:27:42;;;;;;;11.88;5.60;;;;;;;1.40;56.52;101062.16;4348641;33;34086;-95
2021/12/22 05:30:35;;;;;;;11.60;5.47;;;;;;;1.38;56.26;101059.56;4303160;33;32791;-95
2021/12/22 05:33:15;;;;;;;11.25;5.00;;;;;;;1.34;56.67;101067.28;4319424;33;34000;-95
2021/12/22 05:35:58;;;;;;;15.32;5.12;;;;;;;1.10;57.81;101060.87;4338304;33;32594;-96
2021/12/22 05:38:42;;;;;;;8.73;3.92;;;;;;;1.36;57.05;101065.56;4350844;33;32928;-96
2021/12/22 05:41:59;;;;;;;11.57;5.65;;;;;;;1.48;56.63;101074.44;4292226;33;33799;-96
2021/12/22 05:49:15;;;;;;;11.63;4.40;;;;;;;1.71;55.37;101077.34;4327293;33;20124;-96
2021/12/22 05:51:59;;;;;;;9.77;5.03;;;;;;;1.53;55.86;101082.31;4348822;33;34305;-93
2021/12/22 05:54:46;;;;;;;11.38;5.47;;;;;;;1.64;55.52;101075.50;4348013;33;32221;-95
2021/12/22 05:57:37;;;;;;;11.43;6.55;;;;;;;1.66;55.59;101076.41;4329876;33;32947;-92
2021/12/22 06:00:16;;;;;;;10.90;6.10;;;;;;;1.65;55.80;101085.06;4307874;33;32875;-91
2021/12/22 06:03:10;;;;;;;12.45;6.75;;;;;;;1.87;55.02;101090.56;4304587;33;34086;-95
2021/12/22 06:05:55;;;;;;;11.88;6.25;;;;;;;1.70;55.32;101086.00;4329775;33;32529;-96
2021/12/22 06:09:27;;;;;;;10.18;5.15;;;;;;;1.57;55.72;101099.72;4402717;28;36508;-96
2021/12/22 06:12:18;;;;;;;14.25;7.05;;;;;;;1.57;55.78;101096.22;4363477;32;32748;-95
2021/12/22 06:18:16;;;;;;;13.75;7.37;;;;;;;1.57;55.60;101104.03;4316787;33;33340;-95
2021/12/22 06:21:11;;;;;;;14.73;6.65;;;;;;;1.64;55.11;101111.94;4301947;33;20172;-94
2021/12/22 06:24:02;;;;;;;14.40;7.22;;;;;;;1.53;55.35;101119.62;4262650;33;33743;-95
2021/12/22 06:26:42;;;;;;;16.40;7.95;;;;;;;1.62;55.06;101124.09;4278438;33;32011;-94
2021/12/22 06:29:33;;;;;;;14.52;7.28;;;;;;;1.53;54.86;101123.97;4281736;33;32926;-96
2021/12/22 06:32:12;;;;;;;16.23;7.07;;;;;;;1.47;55.17;101127.34;4299003;33;33048;-95
2021/12/22 06:35:04;;;;;;;14.05;5.97;;;;;;;1.57;54.88;101130.06;4263047;33;32784;-96
2021/12/22 06:37:44;;;;;;;14.00;5.93;;;;;;;1.39;55.34;101120.28;4292076;33;32486;-96
2021/12/22 06:40:37;;;;;;;11.93;5.72;;;;;;;1.44;55.42;101127.28;4285178;33;32124;-96
2021/12/22 06:43:16;;;;;;;13.15;6.53;;;;;;;1.49;55.36;101133.44;4277755;33;33268;-96
2021/12/22 06:46:11;;;;;;;12.73;5.35;;;;;;;1.39;55.94;101139.38;4314864;33;34524;-95
2021/12/22 06:48:50;;;;;;;13.95;6.40;;;;;;;1.36;55.83;101151.44;4338682;33;32631;-96
2021/12/22 06:51:42;;;;;;;8.07;4.55;;;;;;;1.06;56.63;101155.31;4328759;33;32508;-96
2021/12/22 06:54:24;;;;;;;12.10;6.40;;;;;;;1.12;56.80;101163.22;4322682;33;33075;-95
2021/12/22 06:57:19;;;;;;;14.63;6.47;;;;;;;1.33;56.30;101154.00;4329916;33;32861;-95
2021/12/22 06:59:58;;;;;;;15.65;8.10;;;;;;;1.21;56.58;101155.56;4348866;33;32230;-96
2021/12/22 07:02:50;;;;;;;12.88;7.43;;;;;;;1.33;56.49;101154.00;4352399;32;33237;-93
2021/12/22 07:05:29;;;;;;;12.18;7.55;;;;;;;1.36;56.33;101160.13;4346925;33;32627;-94
2021/12/22 07:19:45;;;;;;;9.30;5.05;;;;;;;1.43;56.90;101168.94;4272812;33;20151;-89
2021/12/22 07:22:53;;;;;;;17.65;6.65;;;;;;;1.65;56.16;101157.97;4274150;33;33300;-89
2021/12/22 07:29:58;;;;;;;14.13;6.32;;;;;;;1.64;55.98;101164.03;4260955;33;34102;-88
2021/12/22 07:32:45;;;;;;;9.80;6.30;;;;;;;1.56;55.95;101165.63;4285037;33;32858;-89
2021/12/22 07:36:47;;;;;;;9.45;6.03;;;;;;;1.72;55.66;101174.56;4307512;33;33539;-87
2021/12/22 07:40:03;;;;;;;13.30;5.97;;;;;;;1.68;56.04;101165.81;4305711;33;34089;-88
2021/12/22 07:47:28;;;;;;;16.40;9.05;;;;;;;1.88;54.95;101175.63;4283180;33;33816;-86
2021/12/22 07:50:50;;;;;;;13.60;6.85;;;;;;;2.14;53.95;101176.00;4272390;33;32407;-86
2021/12/22 08:01:30;;;;;;;9.30;4.62;;;;;;;2.29;53.16;101192.69;4275636;33;34898;-87
2021/12/22 08:05:24;;;;;;;12.43;4.62;;;;;;;1.95;53.41;101200.94;4300147;33;34168;-88
2021/12/22 08:09:08;;;;;;;8.23;4.37;;;;;;;2.17;52.02;101204.69;4268061;33;33430;-88
2021/12/22 08:12:24;;;;;;;8.38;4.85;;;;;;;1.51;52.72;101208.94;4282621;33;32527;-89
2021/12/22 08:14:52;;;;;;;9.55;5.20;;;;;;;1.71;52.72;101207.53;4308577;33;34344;-89
2021/12/22 08:17:20;;;;;;;9.45;4.43;;;;;;;1.92;51.83;101206.97;4305128;33;33684;-90
2021/12/22 08:20:10;;;;;;;8.40;5.05;;;;;;;1.88;53.24;101204.28;4316116;33;32594;-88
2021/12/22 08:22:38;;;;;;;14.82;7.35;;;;;;;2.10;52.55;101203.75;4342154;33;33545;-88
2021/12/22 08:25:06;;;;;;;43.80;16.65;;;;;;;2.21;52.24;101203.88;4331228;33;33482;-88
2021/12/22 08:27:34;;;;;;;35.65;14.52;;;;;;;2.18;52.73;101209.91;4335596;32;32755;-88
2021/12/22 08:30:03;;;;;;;13.23;7.70;;;;;;;2.22;52.67;101211.69;4327782;33;32076;-88
2021/12/22 08:32:32;;;;;;;11.88;6.80;;;;;;;2.42;51.13;101213.66;4337068;32;32337;-88
2021/12/22 08:35:02;;;;;;;12.88;6.35;;;;;;;2.31;51.96;101210.94;4343385;32;33643;-88
2021/12/22 08:40:17;;;;;;;13.88;5.28;;;;;;;3.07;48.62;101218.72;4342234;32;32606;-88
2021/12/22 08:42:45;;;;;;;11.70;5.53;;;;;;;3.01;48.72;101222.16;4330763;32;32901;-88
2021/12/22 08:45:13;;;;;;;12.35;5.22;;;;;;;2.86;49.13;101226.37;4322907;33;32695;-88
2021/12/22 08:47:41;;;;;;;15.82;5.43;;;;;;;2.75;50.06;101229.75;4344714;33;32768;-88
2021/12/22 08:50:10;;;;;;;7.65;4.95;;;;;;;2.65;50.62;101233.06;4338137;32;33156;-88
2021/12/22 08:52:38;;;;;;;11.63;5.30;;;;;;;2.73;49.98;101230.56;4326909;32;32818;-87
2021/12/22 08:55:07;;;;;;;12.60;5.80;;;;;;;2.70;50.89;101231.38;4333517;32;32833;-87
2021/12/22 08:57:34;;;;;;;12.30;5.22;;;;;;;2.87;50.53;101218.53;4327975;33;32867;-88
2021/12/22 09:00:09;;;;;;;15.25;6.03;;;;;;;3.20;48.50;101238.00;4330501;32;33696;-88
2021/12/22 09:02:39;;;;;;;10.27;6.37;;;;;;;3.01;48.80;101231.72;4327689;32;32682;-88
2021/12/22 09:05:09;;;;;;;10.52;5.53;;;;;;;2.64;50.32;101241.75;4341334;32;33843;-87
2021/12/22 09:07:37;;;;;;;18.45;6.47;;;;;;;2.76;50.67;101236.69;4357698;32;33769;-88
2021/12/22 09:10:05;;;;;;;11.93;5.43;;;;;;;2.95;50.33;101227.34;4331042;32;32861;-88
2021/12/22 09:12:33;;;;;;;15.43;6.30;;;;;;;3.45;47.00;101229.50;4326233;33;33171;-88
2021/12/22 09:15:01;;;;;;;10.32;5.25;;;;;;;3.15;47.94;101235.34;4316604;32;34845;-88
2021/12/22 09:17:29;;;;;;;6.43;3.62;;;;;;;2.95;49.64;101231.69;4339160;32;32821;-88
2021/12/22 09:19:56;;;;;;;12.75;5.53;;;;;;;2.96;47.41;101225.59;4333942;32;32853;-88
2021/12/22 09:22:26;;;;;;;10.02;4.25;;;;;;;2.85;47.38;101230.72;4327785;33;33117;-88
2021/12/22 09:24:54;;;;;;;13.10;5.68;;;;;;;2.27;46.48;101222.19;4335979;33;33454;-88
2021/12/22 09:27:21;;;;;;;10.00;3.97;;;;;;;2.61;47.56;101223.50;4327449;32;33175;-88
2021/12/22 09:29:49;;;;;;;9.98;4.62;;;;;;;2.73;45.31;101231.44;4345136;32;33361;-88
2021/12/22 09:32:18;;;;;;;37.28;14.25;;;;;;;2.77;46.63;101222.78;4334400;32;33841;-89
2021/12/22 09:34:46;;;;;;;14.65;6.95;;;;;;;3.02;46.06;101233.47;4338237;33;32816;-88
2021/12/22 09:37:14;;;;;;;8.68;4.18;;;;;;;3.02;47.22;101231.75;4328739;32;33114;-89
2021/12/22 09:39:42;;;;;;;7.95;4.65;;;;;;;3.10;45.24;101237.03;4358643;32;32252;-88
2021/12/22 09:42:10;;;;;;;9.85;4.53;;;;;;;3.21;45.01;101240.63;4327792;33;33274;-89
2021/12/22 09:44:44;;;;;;;8.15;4.12;;;;;;;3.28;44.55;101226.78;4325964;32;32913;-88
2021/12/22 09:47:13;;;;;;;12.27;4.50;;;;;;;3.38;45.29;101221.62;4320525;32;32840;-89
2021/12/22 09:52:19;;;;;;;10.07;4.65;;;;;;;3.38;44.54;101226.84;4339756;32;33015;-88
2021/12/22 09:54:51;;;;;;;10.45;4.40;;;;;;;2.70;46.32;101226.19;4327525;33;33677;-88
2021/12/22 09:57:21;;;;;;;9.40;4.55;;;;;;;1.94;47.52;101225.22;4354508;32;33445;-87
2021/12/22 09:59:50;;;;;;;7.87;4.20;;;;;;;2.42;46.53;101231.91;4325751;32;32429;-88
2021/12/22 10:02:20;;;;;;;10.85;4.62;;;;;;;3.08;45.10;101223.09;4341284;33;32546;-89
2021/12/22 10:04:48;;;;;;;22.92;8.07;;;;;;;2.94;45.29;101225.56;4330391;32;33789;-88
2021/12/22 10:07:20;;;;;;;14.00;8.05;;;;;;;2.94;45.60;101228.16;4343683;32;33603;-88
2021/12/22 10:09:48;;;;;;;13.55;6.82;;;;;;;2.91;47.23;101229.91;4328780;32;32653;-88
2021/12/22 10:12:35;;;;;;;12.18;6.70;;;;;;;3.47;46.63;101216.50;4329321;32;32999;-88
2021/12/22 10:15:07;;;;;;;13.57;8.40;;;;;;;3.20;47.50;101220.59;4332840;33;33722;-88
2021/12/22 10:17:36;;;;;;;11.38;6.32;;;;;;;3.05;47.16;101225.69;4333337;32;32320;-88
2021/12/22 10:20:09;;;;;;;12.57;5.97;;;;;;;2.79;47.96;101225.41;4329203;33;32661;-88
2021/12/22 10:22:40;;;;;;;12.85;6.28;;;;;;;2.93;46.99;101220.34;4314177;32;33254;-88
2021/12/22 10:25:34;;;;;;;11.45;5.45;;;;;;;3.08;46.38;101218.75;4341311;32;34369;-88
2021/12/22 10:28:13;;;;;;;10.73;5.90;;;;;;;3.12;46.32;101214.44;4336208;33;32766;-88
2021/12/22 10:30:43;;;;;;;12.15;5.78;;;;;;;3.04;46.51;101218.72;4343150;32;33376;-88
2021/12/22 10:33:19;;;;;;;19.80;8.38;;;;;;;2.63;47.01;101213.94;4330290;32;33205;-88
2021/12/22 10:35:50;;;;;;;12.73;5.80;;;;;;;3.08;46.04;101212.66;4339349;32;33185;-88
2021/12/22 10:38:31;;;;;;;7.07;4.25;;;;;;;2.83;45.08;101207.19;4344397;32;33570;-88
2021/12/22 10:41:19;;;;;;;11.90;5.57;;;;;;;3.02;44.83;101208.25;4327002;32;33139;-88
2021/12/22 10:43:49;;;;;;;16.33;7.28;;;;;;;2.72;45.66;101210.56;4339116;32;33746;-88
2021/12/22 10:46:32;;;;;;;10.15;6.15;;;;;;;2.93;45.45;101208.16;4326952;32;32486;-88
2021/12/22 10:49:22;;;;;;;26.90;12.93;;;;;;;2.55;46.45;101212.97;4355131;32;32390;-88
2021/12/22 10:51:58;;;;;;;79.72;32.40;;;;;;;2.61;47.12;101204.34;4328351;32;32818;-88
2021/12/22 10:54:32;;;;;;;14.63;8.15;;;;;;;3.03;45.95;101201.28;4327752;32;33002;-88
2021/12/22 10:57:03;;;;;;;15.02;7.53;;;;;;;2.96;45.02;101204.72;4326411;32;33373;-88
2021/12/22 10:59:47;;;;;;;14.70;6.53;;;;;;;3.02;45.67;101205.63;4318313;32;32891;-87
2021/12/22 11:02:22;;;;;;;11.52;5.85;;;;;;;2.98;45.57;101205.59;4326281;32;32223;-87
2021/12/22 11:04:50;;;;;;;13.30;6.25;;;;;;;3.05;46.34;101200.47;4338895;32;33378;-88
2021/12/22 11:07:23;;;;;;;9.63;6.32;;;;;;;2.81;46.86;101203.72;4352411;32;34497;-87
2021/12/22 11:09:51;;;;;;;11.98;5.65;;;;;;;2.53;47.09;101196.44;4335949;32;33528;-87
2021/12/22 11:12:37;;;;;;;8.98;5.68;;;;;;;2.75;46.78;101194.94;4339680;32;32005;-87
2021/12/22 11:15:05;;;;;;;12.55;6.37;;;;;;;2.91;46.96;101195.97;4323735;32;33500;-87
2021/12/22 11:17:38;;;;;;;13.05;5.30;;;;;;;2.34;47.88;101190.13;4338837;32;34738;-87
2021/12/22 11:20:06;;;;;;;;;;;;;;;2.46;47.31;101197.22;4327393;32;32163;-89
2021/12/22 11:22:53;;;;;;;28.38;9.52;;;;;;;2.40;47.24;101197.16;4325111;32;32019;-88
2021/12/22 11:25:21;;;;;;;18.45;7.53;;;;;;;2.75;47.46;101188.00;4321434;32;33023;-88
2021/12/22 11:27:50;;;;;;;13.85;6.53;;;;;;;2.75;47.79;101185.41;4340004;33;32419;-87
2021/12/22 11:31:02;;;;;;;14.10;6.78;;;;;;;2.43;47.13;101189.37;4341436;32;33546;-88
2021/12/22 11:33:32;;;;;;;12.48;6.53;;;;;;;2.94;46.37;101188.16;4340773;32;32219;-90
2021/12/22 11:36:04;;;;;;;12.80;7.07;;;;;;;3.26;46.10;101172.78;4340326;32;31899;-90
2021/12/22 11:38:34;;;;;;;13.65;6.07;;;;;;;3.58;46.01;101163.47;4339792;32;34250;-88
2021/12/22 11:41:14;;;;;;;12.70;7.18;;;;;;;3.30;46.72;101167.59;4325484;32;33129;-88
2021/12/22 11:43:44;;;;;;;13.13;7.10;;;;;;;3.37;46.28;101165.94;4338582;32;34691;-92
2021/12/22 11:46:13;;;;;;;19.45;7.55;;;;;;;3.20;47.02;101160.56;4322454;33;32560;-96
2021/12/22 11:48:58;;;;;;;16.37;7.25;;;;;;;3.37;46.84;101163.31;4315555;33;33022;-96
2021/12/22 11:51:41;;;;;;;19.60;7.22;;;;;;;3.30;45.58;101162.37;4341364;32;32784;-94
2021/12/22 11:54:29;;;;;;;14.68;7.60;;;;;;;3.04;46.68;101158.72;4339165;33;32172;-96
2021/12/22 12:01:23;;;;;;;24.60;8.98;;;;;;;3.09;46.66;101162.22;4329522;33;35049;-96
2021/12/22 12:04:19;;;;;;;19.83;7.72;;;;;;;3.34;46.33;101158.06;4322353;33;32987;-96
2021/12/22 12:07:12;;;;;;;18.27;7.55;;;;;;;3.55;46.49;101152.97;4332115;33;32302;-96
2021/12/22 12:10:38;;;;;;;23.45;9.18;;;;;;;3.49;46.30;101149.47;4326667;33;33231;-96
2021/12/22 12:13:47;;;;;;;16.00;7.03;;;;;;;3.44;45.78;101143.34;4325905;33;32755;-96
2021/12/22 12:22:49;;;;;;;36.63;13.05;;;;;;;2.54;47.68;101157.34;4307642;33;32163;-95
2021/12/22 12:25:34;;;;;;;29.92;13.10;;;;;;;3.04;46.51;101158.72;4334882;33;32225;-95
2021/12/22 12:28:28;;;;;;;15.82;7.30;;;;;;;3.16;46.68;101143.13;4294340;33;20121;-96
2021/12/22 12:31:10;;;;;;;13.88;6.65;;;;;;;3.11;46.46;101157.88;4316398;33;32198;-96
2021/12/22 12:33:53;;;;;;;16.45;6.93;;;;;;;3.24;46.01;101156.25;4315950;33;31877;-96
2021/12/22 12:36:50;;;;;;;13.62;5.95;;;;;;;3.44;46.24;101148.56;4340676;33;33180;-96
2021/12/22 12:39:53;;;;;;;12.60;6.75;;;;;;;3.14;46.75;101144.88;4325037;33;32258;-96
2021/12/22 12:42:58;;;;;;;11.40;5.50;;;;;;;3.53;46.11;101127.75;4335473;32;32744;-96
2021/12/22 12:45:47;;;;;;;13.57;6.80;;;;;;;2.98;47.10;101143.84;4353657;32;32238;-96
2021/12/22 12:48:40;;;;;;;14.00;6.10;;;;;;;3.44;46.29;101133.78;4332987;33;34035;-96
2021/12/22 12:52:00;;;;;;;11.30;6.70;;;;;;;3.61;46.15;101131.28;4329264;33;33000;-96
2021/12/22 12:59:25;;;;;;;9.57;6.25;;;;;;;3.47;46.79;101140.75;4322871;33;34903;-94
2021/12/22 13:01:57;;;;;;;14.13;6.32;;;;;;;3.58;47.00;101132.13;4314141;32;32565;-91
2021/12/22 13:04:41;;;;;;;13.55;6.93;;;;;;;3.34;47.13;101130.22;4348109;33;33634;-89
2021/12/22 13:07:15;;;;;;;11.48;6.20;;;;;;;3.69;46.05;101134.78;4351384;32;31951;-94
2021/12/22 13:10:11;;;;;;;13.20;6.57;;;;;;;4.24;44.76;101132.44;4331186;33;32461;-96
2021/12/22 13:13:29;;;;;;;17.30;7.07;;;;;;;4.37;44.44;101126.38;4332183;33;33295;-92
2021/12/22 13:16:16;;;;;;;12.50;6.50;;;;;;;4.16;44.80;101131.53;4332680;33;31951;-95
2021/12/22 13:19:17;;;;;;;17.75;6.37;;;;;;;4.18;44.92;101132.44;4355167;33;33237;-92
2021/12/22 13:22:27;;;;;;;14.52;7.20;;;;;;;4.08;45.33;101133.22;4352945;33;34950;-93
2021/12/22 13:25:27;;;;;;;11.98;5.95;;;;;;;3.91;45.65;101137.53;4336231;33;33660;-93
2021/12/22 13:32:33;;;;;;;13.13;6.70;;;;;;;4.23;45.11;101141.16;4336784;33;34042;-95
2021/12/22 13:35:37;;;;;;;18.02;7.57;;;;;;;3.97;45.98;101130.56;4312558;33;32421;-95
2021/12/22 13:39:10;;;;;;;17.25;8.85;;;;;;;4.15;45.81;101132.41;4327947;33;32342;-93
2021/12/22 13:41:54;;;;;;;16.12;7.28;;;;;;;4.16;45.93;101136.75;4314249;33;32293;-95
2021/12/22 13:44:47;;;;;;;12.32;6.03;;;;;;;4.18;46.31;101134.12;4328394;33;31955;-93
2021/12/22 13:47:43;;;;;;;14.40;7.53;;;;;;;4.36;44.88;101132.47;4351055;32;33538;-92
2021/12/22 13:50:41;;;;;;;24.27;10.35;;;;;;;3.96;46.24;101138.41;4339316;33;34700;-94
2021/12/22 13:54:09;;;;;;;32.60;14.00;;;;;;;3.98;46.37;101132.31;4313025;33;33693;-91
2021/12/22 13:56:51;;;;;;;27.17;13.00;;;;;;;4.22;46.03;101136.78;4308325;33;33539;-87
2021/12/22 13:59:23;;;;;;;23.10;11.55;;;;;;;4.14;46.09;101143.72;4292247;33;32667;-91
2021/12/22 14:01:55;;;;;;;24.37;9.55;;;;;;;4.05;46.34;101141.94;4293458;33;32898;-95
2021/12/22 14:04:30;;;;;;;16.75;8.25;;;;;;;3.98;46.32;101134.06;4293384;33;33740;-91
2021/12/22 14:07:06;;;;;;;19.70;8.20;;;;;;;4.20;45.98;101128.06;4293291;33;32302;-93
2021/12/22 14:10:09;;;;;;;17.73;8.82;;;;;;;4.14;45.99;101143.72;4294717;33;33056;-87
2021/12/22 14:12:39;;;;;;;18.02;8.23;;;;;;;3.89;46.78;101147.06;4320030;33;33486;-96
2021/12/22 14:15:37;;;;;;;23.12;10.75;;;;;;;3.89;46.63;101139.25;4332554;33;32406;-94
2021/12/22 14:18:21;;;;;;;19.48;10.52;;;;;;;3.80;46.72;101137.47;4346037;32;32675;-91
2021/12/22 14:21:02;;;;;;;30.30;11.52;;;;;;;3.80;47.20;101132.25;4336346;32;32559;-87
2021/12/22 14:23:56;;;;;;;23.10;12.60;;;;;;;4.01;46.58;101131.47;4358980;32;32461;-88
2021/12/22 14:26:29;;;;;;;25.15;14.07;;;;;;;4.00;46.64;101129.72;4356947;32;31408;-93
2021/12/22 14:29:06;;;;;;;30.73;13.15;;;;;;;3.97;46.88;101129.72;4333999;32;32438;-93